sensor_id;sensor_type;location;lat;lon;timestamp;pressure;altitude;pressure_sealevel;temperature;humidity
11198;BME280;5655;48.744;9.162;2023-04-07T00:02:25;96102.41;;;8.08;100.00
11198;BME280;5655;48.744;9.162;2023-04-07T00:04:51;96102.06;;;8.09;100.00
11198;BME280;5655;48.744;9.162;2023-04-07T00:07:16;96098.56;;;8.05;100.00
11198;BME280;5655;48.744;9.162;2023-04-07T00:09:41;96099.19;;;7.99;100.00
11198;BME280;5655;48.744;9.162;2023-04-07T00:12:07;96091.75;;;8.08;100.00
11198;BME280;5655;48.744;9.162;2023-04-07T00:14:32;96088.41;;;7.92;100.00
11198;BME280;5655;48.744;9.162;2023-04-07T00:16:57;96089.25;;;7.96;100.00
11198;BME280;5655;48.744;9.162;2023-04-07T00:19:22;96082.53;;;8.02;100.00
11198;BME280;5655;48.744;9.162;2023-04-07T00:21:48;96079.56;;;8.07;100.00
11198;BME280;5655;48.744;9.162;2023-04-07T00:24:13;96078.16;;;8.13;100.00
11198;BME280;5655;48.744;9.162;2023-04-07T00:26:38;96085.75;;;8.11;100.00
11198;BME280;5655;48.744;9.162;2023-04-07T00:29:03;96073.53;;;7.91;100.00
11198;BME280;5655;48.744;9.162;2023-04-07T00:31:29;96066.13;;;7.81;100.00
11198;BME280;5655;48.744;9.162;2023-04-07T00:33:54;96080.25;;;8.04;100.00
11198;BME280;5655;48.744;9.162;2023-04-07T00:36:21;96077.03;;;7.95;100.00
11198;BME280;5655;48.744;9.162;2023-04-07T00:38:47;96064.00;;;7.90;100.00
11198;BME280;5655;48.744;9.162;2023-04-07T00:41:12;96059.22;;;7.99;100.00
11198;BME280;5655;48.744;9.162;2023-04-07T00:43:37;96055.75;;;7.75;100.00
11198;BME280;5655;48.744;9.162;2023-04-07T00:46:03;96048.16;;;7.78;100.00
11198;BME280;5655;48.744;9.162;2023-04-07T00:48:28;96054.63;;;7.77;100.00
11198;BME280;5655;48.744;9.162;2023-04-07T00:50:53;96049.44;;;7.84;100.00
11198;BME280;5655;48.744;9.162;2023-04-07T00:53:19;96047.19;;;7.66;100.00
11198;BME280;5655;48.744;9.162;2023-04-07T00:55:44;96052.66;;;7.93;100.00
11198;BME280;5655;48.744;9.162;2023-04-07T00:58:10;96047.94;;;7.86;100.00
11198;BME280;5655;48.744;9.162;2023-04-07T01:00:41;96039.44;;;8.00;100.00
11198;BME280;5655;48.744;9.162;2023-04-07T01:03:19;96035.25;;;7.99;100.00
11198;BME280;5655;48.744;9.162;2023-04-07T01:05:58;96030.16;;;8.13;100.00
11198;BME280;5655;48.744;9.162;2023-04-07T01:08:48;96033.38;;;8.22;100.00
11198;BME280;5655;48.744;9.162;2023-04-07T01:13:49;96026.69;;;8.09;100.00
11198;BME280;5655;48.744;9.162;2023-04-07T01:16:41;96030.41;;;8.04;100.00
11198;BME280;5655;48.744;9.162;2023-04-07T01:21:36;96029.22;;;8.25;100.00
11198;BME280;5655;48.744;9.162;2023-04-07T01:26:42;96030.75;;;8.03;100.00
11198;BME280;5655;48.744;9.162;2023-04-07T01:29:25;96021.59;;;8.23;100.00
11198;BME280;5655;48.744;9.162;2023-04-07T01:31:53;96024.31;;;8.27;100.00
11198;BME280;5655;48.744;9.162;2023-04-07T01:34:19;96027.09;;;8.11;100.00
11198;BME280;5655;48.744;9.162;2023-04-07T01:36:46;96017.97;;;8.12;100.00
11198;BME280;5655;48.744;9.162;2023-04-07T01:39:14;96023.28;;;8.12;100.00
11198;BME280;5655;48.744;9.162;2023-04-07T01:41:40;96023.75;;;7.95;100.00
11198;BME280;5655;48.744;9.162;2023-04-07T01:44:07;96017.41;;;8.03;100.00
11198;BME280;5655;48.744;9.162;2023-04-07T01:46:33;96014.69;;;7.99;100.00
11198;BME280;5655;48.744;9.162;2023-04-07T01:48:59;96000.72;;;7.83;100.00
11198;BME280;5655;48.744;9.162;2023-04-07T01:51:26;96007.38;;;7.73;100.00
11198;BME280;5655;48.744;9.162;2023-04-07T01:53:53;96014.88;;;7.87;100.00
11198;BME280;5655;48.744;9.162;2023-04-07T01:56:18;96000.38;;;7.85;100.00
11198;BME280;5655;48.744;9.162;2023-04-07T01:58:43;96002.19;;;8.03;100.00
11198;BME280;5655;48.744;9.162;2023-04-07T02:01:09;96000.00;;;7.86;100.00
11198;BME280;5655;48.744;9.162;2023-04-07T02:03:39;96002.88;;;8.19;100.00
11198;BME280;5655;48.744;9.162;2023-04-07T02:06:08;96013.28;;;8.05;100.00
11198;BME280;5655;48.744;9.162;2023-04-07T02:08:38;96011.06;;;8.30;100.00
11198;BME280;5655;48.744;9.162;2023-04-07T02:11:07;96003.28;;;8.21;100.00
11198;BME280;5655;48.744;9.162;2023-04-07T02:13:36;96003.72;;;8.24;100.00
11198;BME280;5655;48.744;9.162;2023-04-07T02:16:03;96000.38;;;8.07;100.00
11198;BME280;5655;48.744;9.162;2023-04-07T02:18:30;95993.53;;;7.87;100.00
11198;BME280;5655;48.744;9.162;2023-04-07T02:20:57;95997.94;;;8.21;100.00
11198;BME280;5655;48.744;9.162;2023-04-07T02:23:23;95995.41;;;8.06;100.00
11198;BME280;5655;48.744;9.162;2023-04-07T02:25:49;95991.13;;;8.01;100.00
11198;BME280;5655;48.744;9.162;2023-04-07T02:28:14;95993.09;;;8.04;100.00
11198;BME280;5655;48.744;9.162;2023-04-07T02:30:40;95986.44;;;7.95;100.00
11198;BME280;5655;48.744;9.162;2023-04-07T02:33:05;95991.97;;;8.05;100.00
11198;BME280;5655;48.744;9.162;2023-04-07T02:35:31;95980.69;;;8.15;100.00
11198;BME280;5655;48.744;9.162;2023-04-07T02:37:56;95979.38;;;8.02;100.00
11198;BME280;5655;48.744;9.162;2023-04-07T02:40:21;95978.34;;;8.10;100.00
11198;BME280;5655;48.744;9.162;2023-04-07T02:42:47;95975.09;;;7.98;100.00
11198;BME280;5655;48.744;9.162;2023-04-07T02:45:12;95972.88;;;8.03;100.00
11198;BME280;5655;48.744;9.162;2023-04-07T02:47:39;95970.44;;;7.95;100.00
11198;BME280;5655;48.744;9.162;2023-04-07T02:50:05;95967.38;;;7.93;100.00
11198;BME280;5655;48.744;9.162;2023-04-07T02:52:30;95971.13;;;8.11;100.00
11198;BME280;5655;48.744;9.162;2023-04-07T02:54:56;95966.13;;;7.87;100.00
11198;BME280;5655;48.744;9.162;2023-04-07T02:57:21;95967.25;;;8.08;100.00
11198;BME280;5655;48.744;9.162;2023-04-07T02:59:46;95952.94;;;7.94;100.00
11198;BME280;5655;48.744;9.162;2023-04-07T03:02:12;95964.59;;;8.08;100.00
11198;BME280;5655;48.744;9.162;2023-04-07T03:04:37;95960.16;;;7.93;100.00
11198;BME280;5655;48.744;9.162;2023-04-07T03:07:02;95951.50;;;8.00;100.00
11198;BME280;5655;48.744;9.162;2023-04-07T03:09:28;95947.91;;;7.89;100.00
11198;BME280;5655;48.744;9.162;2023-04-07T03:11:53;95951.59;;;7.81;100.00
11198;BME280;5655;48.744;9.162;2023-04-07T03:14:18;95948.78;;;7.73;100.00
11198;BME280;5655;48.744;9.162;2023-04-07T03:16:44;95953.06;;;8.01;100.00
11198;BME280;5655;48.744;9.162;2023-04-07T03:19:09;95955.28;;;7.99;100.00
11198;BME280;5655;48.744;9.162;2023-04-07T03:21:36;95955.06;;;8.07;100.00
11198;BME280;5655;48.744;9.162;2023-04-07T03:24:02;95945.00;;;7.97;100.00
11198;BME280;5655;48.744;9.162;2023-04-07T03:26:27;95946.06;;;7.93;100.00
11198;BME280;5655;48.744;9.162;2023-04-07T03:28:52;95949.75;;;7.85;100.00
11198;BME280;5655;48.744;9.162;2023-04-07T03:31:18;95952.69;;;8.25;100.00
11198;BME280;5655;48.744;9.162;2023-04-07T03:33:43;95950.09;;;8.06;100.00
11198;BME280;5655;48.744;9.162;2023-04-07T03:36:08;95950.50;;;8.08;100.00
11198;BME280;5655;48.744;9.162;2023-04-07T03:38:34;95949.38;;;8.09;100.00
11198;BME280;5655;48.744;9.162;2023-04-07T03:40:59;95944.34;;;8.04;100.00
11198;BME280;5655;48.744;9.162;2023-04-07T03:43:24;95943.22;;;8.28;100.00
11198;BME280;5655;48.744;9.162;2023-04-07T03:45:52;95942.91;;;8.33;100.00
11198;BME280;5655;48.744;9.162;2023-04-07T03:48:17;95935.00;;;8.13;100.00
11198;BME280;5655;48.744;9.162;2023-04-07T03:50:44;95929.47;;;8.03;100.00
11198;BME280;5655;48.744;9.162;2023-04-07T03:53:09;95940.22;;;8.06;100.00
11198;BME280;5655;48.744;9.162;2023-04-07T03:55:36;95936.72;;;8.29;100.00
11198;BME280;5655;48.744;9.162;2023-04-07T03:58:01;95939.16;;;8.11;100.00
11198;BME280;5655;48.744;9.162;2023-04-07T04:00:27;95940.56;;;8.28;100.00
11198;BME280;5655;48.744;9.162;2023-04-07T04:02:52;95940.06;;;8.22;100.00
11198;BME280;5655;48.744;9.162;2023-04-07T04:05:18;95931.59;;;8.16;100.00
11198;BME280;5655;48.744;9.162;2023-04-07T04:07:43;95935.63;;;8.07;100.00
11198;BME280;5655;48.744;9.162;2023-04-07T04:10:09;95934.44;;;8.27;100.00
11198;BME280;5655;48.744;9.162;2023-04-07T04:12:34;95945.38;;;8.41;100.00
11198;BME280;5655;48.744;9.162;2023-04-07T04:14:59;95933.84;;;8.37;100.00
11198;BME280;5655;48.744;9.162;2023-04-07T04:17:25;95927.41;;;8.38;100.00
11198;BME280;5655;48.744;9.162;2023-04-07T04:19:51;95932.53;;;8.50;100.00
11198;BME280;5655;48.744;9.162;2023-04-07T04:22:16;95933.34;;;8.54;100.00
11198;BME280;5655;48.744;9.162;2023-04-07T04:24:42;95927.09;;;8.43;100.00
11198;BME280;5655;48.744;9.162;2023-04-07T04:27:07;95930.59;;;8.47;100.00
11198;BME280;5655;48.744;9.162;2023-04-07T04:29:32;95924.06;;;8.22;100.00
11198;BME280;5655;48.744;9.162;2023-04-07T04:31:58;95920.69;;;8.25;100.00
11198;BME280;5655;48.744;9.162;2023-04-07T04:34:23;95915.09;;;8.30;100.00
11198;BME280;5655;48.744;9.162;2023-04-07T04:36:48;95937.66;;;8.36;100.00
11198;BME280;5655;48.744;9.162;2023-04-07T04:39:14;95926.44;;;8.50;100.00
11198;BME280;5655;48.744;9.162;2023-04-07T04:41:39;95927.03;;;8.40;100.00
11198;BME280;5655;48.744;9.162;2023-04-07T04:44:04;95919.00;;;8.36;100.00
11198;BME280;5655;48.744;9.162;2023-04-07T04:46:30;95923.56;;;8.13;100.00
11198;BME280;5655;48.744;9.162;2023-04-07T04:48:56;95914.78;;;8.35;100.00
11198;BME280;5655;48.744;9.162;2023-04-07T04:51:22;95926.44;;;8.27;100.00
11198;BME280;5655;48.744;9.162;2023-04-07T04:53:47;95919.03;;;8.17;100.00
11198;BME280;5655;48.744;9.162;2023-04-07T04:56:12;95919.16;;;8.24;100.00
11198;BME280;5655;48.744;9.162;2023-04-07T04:58:39;95917.84;;;8.37;100.00
11198;BME280;5655;48.744;9.162;2023-04-07T05:01:04;95928.72;;;8.51;100.00
11198;BME280;5655;48.744;9.162;2023-04-07T05:03:30;95926.78;;;8.48;100.00
11198;BME280;5655;48.744;9.162;2023-04-07T05:05:55;95923.00;;;8.27;100.00
11198;BME280;5655;48.744;9.162;2023-04-07T05:08:20;95924.72;;;8.38;100.00
11198;BME280;5655;48.744;9.162;2023-04-07T05:10:46;95918.16;;;8.09;100.00
11198;BME280;5655;48.744;9.162;2023-04-07T05:13:11;95928.22;;;8.42;100.00
11198;BME280;5655;48.744;9.162;2023-04-07T05:15:36;95928.06;;;8.09;100.00
11198;BME280;5655;48.744;9.162;2023-04-07T05:18:03;95933.03;;;8.33;100.00
11198;BME280;5655;48.744;9.162;2023-04-07T05:20:28;95935.31;;;8.57;100.00
11198;BME280;5655;48.744;9.162;2023-04-07T05:22:54;95928.84;;;8.32;100.00
11198;BME280;5655;48.744;9.162;2023-04-07T05:25:19;95934.69;;;8.41;100.00
11198;BME280;5655;48.744;9.162;2023-04-07T05:27:44;95934.88;;;8.06;100.00
11198;BME280;5655;48.744;9.162;2023-04-07T05:30:10;95935.63;;;8.52;100.00
11198;BME280;5655;48.744;9.162;2023-04-07T05:32:36;95933.09;;;8.37;100.00
11198;BME280;5655;48.744;9.162;2023-04-07T05:35:02;95947.25;;;8.41;100.00
11198;BME280;5655;48.744;9.162;2023-04-07T05:37:27;95938.19;;;8.45;100.00
11198;BME280;5655;48.744;9.162;2023-04-07T05:39:52;95943.97;;;8.51;100.00
11198;BME280;5655;48.744;9.162;2023-04-07T05:42:17;95935.41;;;8.38;100.00
11198;BME280;5655;48.744;9.162;2023-04-07T05:44:43;95940.91;;;8.49;100.00
11198;BME280;5655;48.744;9.162;2023-04-07T05:47:08;95935.53;;;8.45;100.00
11198;BME280;5655;48.744;9.162;2023-04-07T05:49:35;95935.56;;;8.75;100.00
11198;BME280;5655;48.744;9.162;2023-04-07T05:52:00;95939.19;;;8.63;100.00
11198;BME280;5655;48.744;9.162;2023-04-07T05:54:27;95940.44;;;8.70;100.00
11198;BME280;5655;48.744;9.162;2023-04-07T05:56:53;95943.44;;;8.68;100.00
11198;BME280;5655;48.744;9.162;2023-04-07T05:59:18;95937.47;;;8.48;100.00
11198;BME280;5655;48.744;9.162;2023-04-07T06:01:43;95933.47;;;8.61;100.00
11198;BME280;5655;48.744;9.162;2023-04-07T06:04:08;95939.41;;;8.78;100.00
11198;BME280;5655;48.744;9.162;2023-04-07T06:06:34;95938.84;;;8.65;100.00
11198;BME280;5655;48.744;9.162;2023-04-07T06:08:59;95946.50;;;8.67;100.00
11198;BME280;5655;48.744;9.162;2023-04-07T06:11:25;95944.13;;;8.88;100.00
11198;BME280;5655;48.744;9.162;2023-04-07T06:13:51;95949.81;;;8.86;100.00
11198;BME280;5655;48.744;9.162;2023-04-07T06:16:16;95953.44;;;9.01;100.00
11198;BME280;5655;48.744;9.162;2023-04-07T06:18:42;95944.78;;;8.81;100.00
11198;BME280;5655;48.744;9.162;2023-04-07T06:21:07;95955.59;;;8.92;100.00
11198;BME280;5655;48.744;9.162;2023-04-07T06:23:33;95953.63;;;8.89;100.00
11198;BME280;5655;48.744;9.162;2023-04-07T06:25:58;95936.59;;;8.97;100.00
11198;BME280;5655;48.744;9.162;2023-04-07T06:28:24;95947.06;;;9.09;100.00
11198;BME280;5655;48.744;9.162;2023-04-07T06:30:49;95948.28;;;8.89;100.00
11198;BME280;5655;48.744;9.162;2023-04-07T06:33:14;95954.94;;;9.02;100.00
11198;BME280;5655;48.744;9.162;2023-04-07T06:35:40;95946.91;;;8.98;100.00
11198;BME280;5655;48.744;9.162;2023-04-07T06:38:06;95952.19;;;8.95;100.00
11198;BME280;5655;48.744;9.162;2023-04-07T06:40:32;95950.56;;;8.87;100.00
11198;BME280;5655;48.744;9.162;2023-04-07T06:42:57;95943.53;;;9.01;100.00
11198;BME280;5655;48.744;9.162;2023-04-07T06:45:23;95951.75;;;8.89;100.00
11198;BME280;5655;48.744;9.162;2023-04-07T06:47:48;95945.75;;;8.70;100.00
11198;BME280;5655;48.744;9.162;2023-04-07T06:50:13;95936.13;;;8.61;100.00
11198;BME280;5655;48.744;9.162;2023-04-07T06:52:39;95932.44;;;8.70;100.00
11198;BME280;5655;48.744;9.162;2023-04-07T06:55:05;95931.47;;;8.85;100.00
11198;BME280;5655;48.744;9.162;2023-04-07T06:57:31;95938.81;;;8.91;100.00
11198;BME280;5655;48.744;9.162;2023-04-07T06:59:57;95938.50;;;8.67;100.00
11198;BME280;5655;48.744;9.162;2023-04-07T07:02:22;95937.09;;;9.06;100.00
11198;BME280;5655;48.744;9.162;2023-04-07T07:04:48;95938.53;;;9.00;100.00
11198;BME280;5655;48.744;9.162;2023-04-07T07:07:13;95934.75;;;9.01;100.00
11198;BME280;5655;48.744;9.162;2023-04-07T07:09:38;95931.06;;;9.13;100.00
11198;BME280;5655;48.744;9.162;2023-04-07T07:12:03;95929.50;;;9.08;100.00
11198;BME280;5655;48.744;9.162;2023-04-07T07:14:30;95925.66;;;9.05;100.00
11198;BME280;5655;48.744;9.162;2023-04-07T07:16:55;95933.63;;;9.35;100.00
11198;BME280;5655;48.744;9.162;2023-04-07T07:19:21;95930.84;;;8.95;100.00
11198;BME280;5655;48.744;9.162;2023-04-07T07:21:46;95925.28;;;8.77;100.00
11198;BME280;5655;48.744;9.162;2023-04-07T07:24:11;95933.81;;;9.20;100.00
11198;BME280;5655;48.744;9.162;2023-04-07T07:26:36;95938.09;;;9.28;100.00
11198;BME280;5655;48.744;9.162;2023-04-07T07:29:02;95940.25;;;9.15;100.00
11198;BME280;5655;48.744;9.162;2023-04-07T07:31:27;95951.09;;;9.63;100.00
11198;BME280;5655;48.744;9.162;2023-04-07T07:33:52;95955.56;;;9.51;100.00
11198;BME280;5655;48.744;9.162;2023-04-07T07:36:18;95957.00;;;9.79;100.00
11198;BME280;5655;48.744;9.162;2023-04-07T07:38:43;95952.97;;;9.58;100.00
11198;BME280;5655;48.744;9.162;2023-04-07T07:41:08;95963.06;;;9.76;100.00
11198;BME280;5655;48.744;9.162;2023-04-07T07:43:34;95948.53;;;9.73;100.00
11198;BME280;5655;48.744;9.162;2023-04-07T07:46:01;95961.25;;;9.83;100.00
11198;BME280;5655;48.744;9.162;2023-04-07T07:48:26;95961.38;;;9.61;100.00
11198;BME280;5655;48.744;9.162;2023-04-07T07:50:51;95965.19;;;9.60;100.00
11198;BME280;5655;48.744;9.162;2023-04-07T07:53:17;95960.31;;;9.69;100.00
11198;BME280;5655;48.744;9.162;2023-04-07T07:55:45;95966.50;;;10.13;100.00
11198;BME280;5655;48.744;9.162;2023-04-07T07:58:11;95965.03;;;10.19;100.00
11198;BME280;5655;48.744;9.162;2023-04-07T08:00:36;95968.22;;;9.95;100.00
11198;BME280;5655;48.744;9.162;2023-04-07T08:03:01;95972.09;;;10.01;100.00
11198;BME280;5655;48.744;9.162;2023-04-07T08:05:27;95970.41;;;10.23;100.00
11198;BME280;5655;48.744;9.162;2023-04-07T08:07:52;95964.91;;;10.09;100.00
11198;BME280;5655;48.744;9.162;2023-04-07T08:10:19;95974.84;;;10.08;100.00
11198;BME280;5655;48.744;9.162;2023-04-07T08:12:45;95966.16;;;10.66;100.00
11198;BME280;5655;48.744;9.162;2023-04-07T08:15:10;95971.50;;;10.66;100.00
11198;BME280;5655;48.744;9.162;2023-04-07T08:17:35;95973.06;;;10.70;100.00
11198;BME280;5655;48.744;9.162;2023-04-07T08:20:01;95971.16;;;10.71;100.00
11198;BME280;5655;48.744;9.162;2023-04-07T08:22:28;95976.25;;;10.90;100.00
11198;BME280;5655;48.744;9.162;2023-04-07T08:24:53;95978.31;;;10.53;100.00
11198;BME280;5655;48.744;9.162;2023-04-07T08:27:18;95990.56;;;11.22;100.00
11198;BME280;5655;48.744;9.162;2023-04-07T08:29:45;95988.28;;;11.21;100.00
11198;BME280;5655;48.744;9.162;2023-04-07T08:32:10;95987.84;;;11.08;100.00
11198;BME280;5655;48.744;9.162;2023-04-07T08:34:36;95988.78;;;11.48;100.00
11198;BME280;5655;48.744;9.162;2023-04-07T08:37:01;95986.78;;;11.30;100.00
11198;BME280;5655;48.744;9.162;2023-04-07T08:39:26;95985.69;;;11.38;100.00
11198;BME280;5655;48.744;9.162;2023-04-07T08:41:53;95983.47;;;11.55;100.00
11198;BME280;5655;48.744;9.162;2023-04-07T08:44:20;95992.22;;;11.45;100.00
11198;BME280;5655;48.744;9.162;2023-04-07T08:46:47;95985.59;;;11.17;100.00
11198;BME280;5655;48.744;9.162;2023-04-07T08:49:14;95984.38;;;11.04;100.00
11198;BME280;5655;48.744;9.162;2023-04-07T08:51:45;95984.59;;;11.54;100.00
11198;BME280;5655;48.744;9.162;2023-04-07T08:54:16;95985.78;;;11.67;100.00
11198;BME280;5655;48.744;9.162;2023-04-07T08:56:43;95987.25;;;11.47;100.00
11198;BME280;5655;48.744;9.162;2023-04-07T08:59:11;95983.56;;;11.83;100.00
11198;BME280;5655;48.744;9.162;2023-04-07T09:01:38;95989.38;;;11.99;100.00
11198;BME280;5655;48.744;9.162;2023-04-07T09:04:04;95987.84;;;12.12;100.00
11198;BME280;5655;48.744;9.162;2023-04-07T09:06:30;95993.63;;;12.67;100.00
11198;BME280;5655;48.744;9.162;2023-04-07T09:08:56;95986.31;;;13.10;100.00
11198;BME280;5655;48.744;9.162;2023-04-07T09:11:22;95996.69;;;12.66;100.00
11198;BME280;5655;48.744;9.162;2023-04-07T09:13:48;95996.31;;;12.64;100.00
11198;BME280;5655;48.744;9.162;2023-04-07T09:16:15;95998.19;;;13.24;100.00
11198;BME280;5655;48.744;9.162;2023-04-07T09:18:40;95995.13;;;12.86;100.00
11198;BME280;5655;48.744;9.162;2023-04-07T09:21:07;95992.84;;;12.60;100.00
11198;BME280;5655;48.744;9.162;2023-04-07T09:23:34;95992.06;;;12.88;100.00
11198;BME280;5655;48.744;9.162;2023-04-07T09:28:47;95987.44;;;12.99;100.00
11198;BME280;5655;48.744;9.162;2023-04-07T09:31:13;95993.19;;;13.18;100.00
11198;BME280;5655;48.744;9.162;2023-04-07T09:33:38;95987.81;;;13.22;100.00
11198;BME280;5655;48.744;9.162;2023-04-07T09:36:05;95990.13;;;13.16;100.00
11198;BME280;5655;48.744;9.162;2023-04-07T09:38:41;95991.22;;;13.37;100.00
11198;BME280;5655;48.744;9.162;2023-04-07T09:41:14;95982.16;;;13.86;100.00
11198;BME280;5655;48.744;9.162;2023-04-07T09:43:44;95988.75;;;13.74;100.00
11198;BME280;5655;48.744;9.162;2023-04-07T09:46:14;95981.13;;;13.62;100.00
11198;BME280;5655;48.744;9.162;2023-04-07T09:48:41;95985.41;;;13.49;100.00
11198;BME280;5655;48.744;9.162;2023-04-07T09:51:16;95988.53;;;13.37;100.00
11198;BME280;5655;48.744;9.162;2023-04-07T09:56:09;95982.56;;;13.84;100.00
11198;BME280;5655;48.744;9.162;2023-04-07T09:58:37;95971.63;;;14.13;100.00
11198;BME280;5655;48.744;9.162;2023-04-07T10:01:04;95973.25;;;13.99;100.00
11198;BME280;5655;48.744;9.162;2023-04-07T10:03:29;95979.97;;;14.36;100.00
11198;BME280;5655;48.744;9.162;2023-04-07T10:05:59;95980.44;;;14.75;100.00
11198;BME280;5655;48.744;9.162;2023-04-07T10:08:25;95981.16;;;14.76;100.00
11198;BME280;5655;48.744;9.162;2023-04-07T10:10:51;95978.56;;;15.06;100.00
11198;BME280;5655;48.744;9.162;2023-04-07T10:13:17;95970.59;;;14.51;100.00
11198;BME280;5655;48.744;9.162;2023-04-07T10:15:42;95979.88;;;14.46;100.00
11198;BME280;5655;48.744;9.162;2023-04-07T10:18:08;95974.06;;;14.51;100.00
11198;BME280;5655;48.744;9.162;2023-04-07T10:20:34;95981.78;;;13.87;100.00
11198;BME280;5655;48.744;9.162;2023-04-07T10:23:12;95986.53;;;13.62;100.00
11198;BME280;5655;48.744;9.162;2023-04-07T10:25:40;95992.00;;;13.27;100.00
11198;BME280;5655;48.744;9.162;2023-04-07T10:28:08;95993.59;;;13.13;100.00
11198;BME280;5655;48.744;9.162;2023-04-07T10:30:35;95990.56;;;12.62;100.00
11198;BME280;5655;48.744;9.162;2023-04-07T10:33:01;95993.97;;;13.01;100.00
11198;BME280;5655;48.744;9.162;2023-04-07T10:35:26;95992.81;;;13.16;100.00
11198;BME280;5655;48.744;9.162;2023-04-07T10:38:12;95992.00;;;13.37;100.00
11198;BME280;5655;48.744;9.162;2023-04-07T10:40:40;95998.97;;;12.96;100.00
11198;BME280;5655;48.744;9.162;2023-04-07T10:43:06;95998.09;;;13.45;100.00
11198;BME280;5655;48.744;9.162;2023-04-07T10:48:15;95999.34;;;13.19;100.00
11198;BME280;5655;48.744;9.162;2023-04-07T10:50:41;95992.78;;;13.09;100.00
11198;BME280;5655;48.744;9.162;2023-04-07T10:53:09;96000.91;;;12.88;100.00
11198;BME280;5655;48.744;9.162;2023-04-07T10:58:32;95998.94;;;13.21;100.00
11198;BME280;5655;48.744;9.162;2023-04-07T11:03:34;95996.31;;;12.85;100.00
11198;BME280;5655;48.744;9.162;2023-04-07T11:06:13;95992.81;;;12.95;100.00
11198;BME280;5655;48.744;9.162;2023-04-07T11:08:46;95995.13;;;12.86;100.00
11198;BME280;5655;48.744;9.162;2023-04-07T11:11:14;95997.44;;;12.84;100.00
11198;BME280;5655;48.744;9.162;2023-04-07T11:13:47;96002.06;;;12.77;100.00
11198;BME280;5655;48.744;9.162;2023-04-07T11:16:15;95998.16;;;13.09;100.00
11198;BME280;5655;48.744;9.162;2023-04-07T11:18:41;95999.72;;;13.00;100.00
11198;BME280;5655;48.744;9.162;2023-04-07T11:21:07;95997.41;;;12.95;100.00
11198;BME280;5655;48.744;9.162;2023-04-07T11:23:44;95999.72;;;13.14;100.00
11198;BME280;5655;48.744;9.162;2023-04-07T11:26:11;95997.75;;;13.36;100.00
11198;BME280;5655;48.744;9.162;2023-04-07T11:28:54;95998.94;;;12.99;100.00
11198;BME280;5655;48.744;9.162;2023-04-07T11:31:29;95995.13;;;12.93;100.00
11198;BME280;5655;48.744;9.162;2023-04-07T11:34:00;96003.97;;;13.11;100.00
11198;BME280;5655;48.744;9.162;2023-04-07T11:36:34;95998.16;;;13.31;100.00
11198;BME280;5655;48.744;9.162;2023-04-07T11:39:00;96009.72;;;12.96;100.00
11198;BME280;5655;48.744;9.162;2023-04-07T11:41:28;96010.50;;;12.75;100.00
11198;BME280;5655;48.744;9.162;2023-04-07T11:44:06;96012.78;;;12.84;100.00
11198;BME280;5655;48.744;9.162;2023-04-07T11:46:31;96013.19;;;12.33;100.00
11198;BME280;5655;48.744;9.162;2023-04-07T11:49:08;96024.31;;;12.49;100.00
11198;BME280;5655;48.744;9.162;2023-04-07T11:51:34;96020.03;;;12.12;100.00
11198;BME280;5655;48.744;9.162;2023-04-07T11:53:59;96025.78;;;12.14;100.00
11198;BME280;5655;48.744;9.162;2023-04-07T11:56:25;96034.63;;;12.18;100.00
11198;BME280;5655;48.744;9.162;2023-04-07T11:58:53;96034.41;;;11.65;100.00
11198;BME280;5655;48.744;9.162;2023-04-07T12:01:20;96032.50;;;11.66;100.00
11198;BME280;5655;48.744;9.162;2023-04-07T12:03:59;96036.81;;;11.77;100.00
11198;BME280;5655;48.744;9.162;2023-04-07T12:06:32;96038.75;;;11.84;100.00
11198;BME280;5655;48.744;9.162;2023-04-07T12:09:00;96025.34;;;11.91;100.00
11198;BME280;5655;48.744;9.162;2023-04-07T12:11:26;96033.53;;;11.40;100.00
11198;BME280;5655;48.744;9.162;2023-04-07T12:13:52;96024.38;;;11.41;100.00
11198;BME280;5655;48.744;9.162;2023-04-07T12:16:19;96015.09;;;11.24;100.00
11198;BME280;5655;48.744;9.162;2023-04-07T12:18:45;96018.53;;;11.25;100.00
11198;BME280;5655;48.744;9.162;2023-04-07T12:21:10;96019.94;;;11.05;100.00
11198;BME280;5655;48.744;9.162;2023-04-07T12:23:35;96025.34;;;11.08;100.00
11198;BME280;5655;48.744;9.162;2023-04-07T12:26:01;96033.84;;;11.24;100.00
11198;BME280;5655;48.744;9.162;2023-04-07T12:28:27;96026.06;;;11.05;100.00
11198;BME280;5655;48.744;9.162;2023-04-07T12:30:52;96033.78;;;11.14;100.00
11198;BME280;5655;48.744;9.162;2023-04-07T12:33:18;96026.91;;;11.16;100.00
11198;BME280;5655;48.744;9.162;2023-04-07T12:35:43;96027.59;;;11.06;100.00
11198;BME280;5655;48.744;9.162;2023-04-07T12:38:09;96030.63;;;11.01;100.00
11198;BME280;5655;48.744;9.162;2023-04-07T12:40:34;96033.72;;;11.03;100.00
11198;BME280;5655;48.744;9.162;2023-04-07T12:43:00;96030.19;;;10.92;100.00
11198;BME280;5655;48.744;9.162;2023-04-07T12:45:26;96036.09;;;11.15;100.00
11198;BME280;5655;48.744;9.162;2023-04-07T12:47:51;96025.41;;;11.22;100.00
11198;BME280;5655;48.744;9.162;2023-04-07T12:50:16;96037.63;;;11.16;100.00
11198;BME280;5655;48.744;9.162;2023-04-07T12:52:42;96027.25;;;11.11;100.00
11198;BME280;5655;48.744;9.162;2023-04-07T12:55:08;96030.56;;;10.87;100.00
11198;BME280;5655;48.744;9.162;2023-04-07T12:57:33;96028.84;;;11.23;100.00
11198;BME280;5655;48.744;9.162;2023-04-07T12:59:58;96033.41;;;11.12;100.00
11198;BME280;5655;48.744;9.162;2023-04-07T13:02:24;96036.16;;;11.26;100.00
11198;BME280;5655;48.744;9.162;2023-04-07T13:04:49;96027.38;;;11.29;100.00
11198;BME280;5655;48.744;9.162;2023-04-07T13:07:15;96021.63;;;11.30;100.00
11198;BME280;5655;48.744;9.162;2023-04-07T13:09:41;96020.19;;;11.51;100.00
11198;BME280;5655;48.744;9.162;2023-04-07T13:12:10;96008.63;;;11.32;100.00
11198;BME280;5655;48.744;9.162;2023-04-07T13:14:40;96018.72;;;11.60;100.00
11198;BME280;5655;48.744;9.162;2023-04-07T13:17:06;96012.75;;;11.12;100.00
11198;BME280;5655;48.744;9.162;2023-04-07T13:19:32;96021.22;;;11.21;100.00
11198;BME280;5655;48.744;9.162;2023-04-07T13:21:57;96022.53;;;11.56;100.00
11198;BME280;5655;48.744;9.162;2023-04-07T13:24:23;96024.19;;;11.09;100.00
11198;BME280;5655;48.744;9.162;2023-04-07T13:26:49;96021.56;;;11.20;100.00